createdAt,value
2023-03-20T00:01:30.891Z,98814.67
2023-03-20T00:04:01.097Z,98815.53
2023-03-20T00:06:30.993Z,98812.20
2023-03-20T00:09:09.044Z,98813.56
2023-03-20T00:11:50.330Z,98810.00
2023-03-20T00:14:20.506Z,98805.30
2023-03-20T00:16:51.769Z,98804.98
2023-03-20T00:19:24.874Z,98804.69
2023-03-20T00:21:55.987Z,98813.70
2023-03-20T00:24:27.259Z,98807.81
2023-03-20T00:27:03.579Z,98816.61
2023-03-20T00:29:33.594Z,98812.66
2023-03-20T00:32:03.440Z,98824.39
2023-03-20T00:34:33.330Z,98825.25
2023-03-20T00:37:03.527Z,98819.16
2023-03-20T00:39:36.176Z,98817.50
2023-03-20T00:42:25.669Z,98813.33
2023-03-20T00:45:45.723Z,98813.84
2023-03-20T00:48:40.015Z,98820.37
2023-03-20T00:52:17.227Z,98822.20
2023-03-20T00:54:35.909Z,98814.77
2023-03-20T00:57:37.500Z,98811.13
2023-03-20T01:00:38.717Z,98812.70
2023-03-20T01:03:43.443Z,98815.69
2023-03-20T01:06:27.415Z,98819.70
2023-03-20T01:09:18.347Z,98811.44
2023-03-20T01:12:05.629Z,98814.09
2023-03-20T01:14:35.785Z,98816.73
2023-03-20T01:17:05.626Z,98816.12
2023-03-20T01:19:35.539Z,98798.88
2023-03-20T01:25:17.083Z,98808.94
2023-03-20T01:27:52.271Z,98807.79
2023-03-20T01:30:26.233Z,98804.48
2023-03-20T01:33:01.803Z,98800.07
2023-03-20T01:35:33.118Z,98799.78
2023-03-20T01:38:03.140Z,98803.04
2023-03-20T01:40:39.704Z,98798.05
2023-03-20T01:43:17.923Z,98793.05
2023-03-20T01:46:00.968Z,98788.11
2023-03-20T01:48:40.658Z,98789.09
2023-03-20T01:51:45.384Z,98784.47
2023-03-20T01:54:20.140Z,98784.39
2023-03-20T01:57:00.495Z,98779.40
2023-03-20T01:59:38.077Z,98785.92
2023-03-20T02:02:09.133Z,98775.77
2023-03-20T02:04:42.234Z,98778.20
2023-03-20T02:07:33.125Z,98776.76
2023-03-20T02:10:15.261Z,98774.17
2023-03-20T02:12:51.881Z,98780.98
2023-03-20T02:15:29.426Z,98781.97
2023-03-20T02:17:59.692Z,98774.55
2023-03-20T02:20:35.412Z,98774.25
2023-03-20T02:23:38.450Z,98776.98
2023-03-20T02:26:15.133Z,98772.06
2023-03-20T02:29:04.546Z,98775.30
2023-03-20T02:38:17.377Z,98780.92
2023-03-20T02:41:01.823Z,98785.17
2023-03-20T02:43:55.123Z,98783.43
2023-03-20T02:47:00.715Z,98783.56
2023-03-20T02:53:13.970Z,98785.83
2023-03-20T02:55:46.268Z,98791.44
2023-03-20T02:58:24.137Z,98784.09
2023-03-20T03:01:03.037Z,98787.94
2023-03-20T03:03:46.735Z,98788.27
2023-03-20T03:09:38.421Z,98789.55
2023-03-20T03:18:38.105Z,98784.62
2023-03-20T03:21:16.426Z,98789.22
2023-03-20T03:24:10.927Z,98787.86
2023-03-20T03:26:42.810Z,98789.75
2023-03-20T03:29:17.832Z,98790.82
2023-03-20T03:31:49.022Z,98793.25
2023-03-20T03:37:28.593Z,98783.72
2023-03-20T03:43:16.670Z,98779.63
2023-03-20T03:46:05.689Z,98781.20
2023-03-20T03:48:45.424Z,98783.39
2023-03-20T03:54:56.848Z,98780.99
2023-03-20T03:57:45.582Z,98780.75
2023-03-20T04:00:22.440Z,98772.37
2023-03-20T04:02:53.698Z,98764.33
2023-03-20T04:05:25.488Z,98771.52
2023-03-20T04:08:00.591Z,98763.28
2023-03-20T04:10:32.787Z,98765.16
2023-03-20T04:13:03.853Z,98766.22
2023-03-20T04:15:42.177Z,98768.95
2023-03-20T04:18:18.347Z,98731.68
2023-03-20T04:20:49.657Z,98756.61
2023-03-20T04:23:20.829Z,98759.86
2023-03-20T04:25:55.780Z,98758.18
2023-03-20T04:28:25.486Z,98752.59
2023-03-20T04:31:01.747Z,98752.89
2023-03-20T04:36:20.939Z,98749.26
2023-03-20T04:38:52.048Z,98745.38
2023-03-20T04:41:51.457Z,98742.57
2023-03-20T04:44:22.936Z,98741.45
2023-03-20T04:47:00.316Z,98733.73
2023-03-20T04:49:31.205Z,98720.63
2023-03-20T04:52:01.764Z,98725.98
2023-03-20T04:54:53.683Z,98719.42
2023-03-20T04:57:24.392Z,98713.59
2023-03-20T04:59:55.868Z,98714.88
2023-03-20T05:02:27.613Z,98708.81
2023-03-20T05:04:58.709Z,98693.67
2023-03-20T05:07:29.822Z,98694.28
2023-03-20T05:10:09.571Z,98677.25
2023-03-20T05:12:58.822Z,98678.31
2023-03-20T05:15:29.085Z,98672.26
2023-03-20T05:18:00.998Z,98672.70
2023-03-20T05:20:31.885Z,98669.66
2023-03-20T05:23:06.370Z,98667.92
2023-03-20T05:25:50.947Z,98659.64
2023-03-20T05:28:33.978Z,98645.87
2023-03-20T05:31:21.703Z,98642.61
2023-03-20T05:34:20.954Z,98644.95
2023-03-20T05:36:51.912Z,98641.53
2023-03-20T05:39:23.673Z,98623.09
2023-03-20T05:41:54.849Z,98621.56
2023-03-20T05:44:39.149Z,98616.50
2023-03-20T05:47:39.343Z,98611.75
2023-03-20T05:50:11.167Z,98602.97
2023-03-20T05:52:42.588Z,98602.80
2023-03-20T05:55:14.915Z,98598.92
2023-03-20T05:58:03.300Z,98596.36
2023-03-20T06:00:35.549Z,98597.02
2023-03-20T06:03:07.973Z,98598.37
2023-03-20T06:05:39.051Z,98599.03
2023-03-20T06:08:11.261Z,98588.59
2023-03-20T06:10:43.856Z,98584.14
2023-03-20T06:13:26.820Z,98590.02
2023-03-20T06:16:05.904Z,98592.13
2023-03-20T06:18:39.840Z,98581.16
2023-03-20T06:21:11.964Z,98576.70
2023-03-20T06:23:44.189Z,98574.09
2023-03-20T06:26:16.614Z,98561.69
2023-03-20T06:28:48.039Z,98571.20
2023-03-20T06:31:19.076Z,98567.66
2023-03-20T06:34:04.580Z,98569.14
2023-03-20T06:36:35.573Z,98559.83
2023-03-20T06:39:06.540Z,98561.92
2023-03-20T06:41:37.814Z,98560.19
2023-03-20T06:44:10.039Z,98559.06
2023-03-20T06:46:41.211Z,98557.08
2023-03-20T06:49:15.682Z,98547.48
2023-03-20T06:51:46.197Z,98543.76
2023-03-20T06:54:17.927Z,98542.61
2023-03-20T06:56:51.363Z,98545.23
2023-03-20T06:59:25.755Z,98539.20
2023-03-20T07:01:56.818Z,98539.95
2023-03-20T07:04:29.080Z,98522.93
2023-03-20T07:07:12.979Z,98530.87
2023-03-20T07:09:44.225Z,98520.45
2023-03-20T07:12:20.194Z,98516.78
2023-03-20T07:14:52.289Z,98519.20
2023-03-20T07:17:23.925Z,98515.28
2023-03-20T07:19:55.936Z,98510.58
2023-03-20T07:22:31.851Z,98516.45
2023-03-20T07:25:09.741Z,98503.72
2023-03-20T07:27:41.317Z,98514.15
2023-03-20T07:30:15.004Z,98516.48
2023-03-20T07:32:47.983Z,98512.45
2023-03-20T07:35:21.228Z,98516.62
2023-03-20T07:37:53.096Z,98505.87
2023-03-20T07:40:25.315Z,98504.75
2023-03-20T07:42:56.696Z,98504.95
2023-03-20T07:45:27.910Z,98502.14
2023-03-20T07:47:58.408Z,98482.51
2023-03-20T07:50:28.978Z,98484.40
2023-03-20T07:53:04.474Z,98493.81
2023-03-20T07:55:36.391Z,98482.23
2023-03-20T07:58:21.184Z,98492.80
2023-03-20T08:00:52.263Z,98494.98
2023-03-20T08:03:24.123Z,98495.22
2023-03-20T08:06:16.128Z,98495.12
2023-03-20T08:08:48.219Z,98490.59
2023-03-20T08:11:21.064Z,98498.14
2023-03-20T08:13:54.515Z,98496.55
2023-03-20T08:16:27.055Z,98491.45
2023-03-20T08:18:59.263Z,98488.33
2023-03-20T08:21:33.224Z,98485.91
2023-03-20T08:24:04.532Z,98487.90
2023-03-20T08:26:36.042Z,98472.97
2023-03-20T08:29:08.551Z,98468.16
2023-03-20T08:31:40.237Z,98473.35
2023-03-20T08:36:54.303Z,98449.74
2023-03-20T08:39:25.999Z,98453.17
2023-03-20T08:41:58.399Z,98444.00
2023-03-20T08:44:30.337Z,98455.45
2023-03-20T08:50:23.588Z,98436.00
2023-03-20T08:52:55.018Z,98440.07
2023-03-20T08:55:28.681Z,98442.88
2023-03-20T08:58:00.689Z,98448.64
2023-03-20T09:00:32.276Z,98422.22
2023-03-20T09:03:05.147Z,98434.62
2023-03-20T09:05:38.802Z,98432.52
2023-03-20T09:08:10.960Z,98433.88
2023-03-20T09:10:44.652Z,98430.84
2023-03-20T09:13:26.753Z,98433.44
2023-03-20T09:15:50.404Z,98424.14
2023-03-20T09:18:22.974Z,98415.45
2023-03-20T09:20:54.293Z,98414.01
2023-03-20T09:23:26.034Z,98415.61
2023-03-20T09:25:57.041Z,98412.51
2023-03-20T09:28:30.079Z,98398.07
2023-03-20T09:31:01.346Z,98397.78
2023-03-20T09:33:32.250Z,98391.34
2023-03-20T09:36:05.002Z,98393.53
2023-03-20T09:38:35.398Z,98389.25
2023-03-20T09:41:05.825Z,98398.52
2023-03-20T09:43:44.947Z,98392.87
2023-03-20T09:46:48.858Z,98394.33
2023-03-20T09:49:57.318Z,98393.55
2023-03-20T09:52:46.733Z,98383.02
2023-03-20T09:55:18.563Z,98387.71
2023-03-20T09:57:56.812Z,98392.08
2023-03-20T10:00:47.609Z,98387.47
2023-03-20T10:03:23.323Z,98388.00
2023-03-20T10:06:06.762Z,98383.93
2023-03-20T10:08:37.624Z,98386.64
2023-03-20T10:11:36.236Z,98376.84
2023-03-20T10:14:39.317Z,98391.45
2023-03-20T10:17:43.148Z,98390.42
2023-03-20T10:20:27.927Z,98379.77
2023-03-20T10:23:51.520Z,98380.83
2023-03-20T10:26:25.656Z,98379.69
2023-03-20T10:29:26.669Z,98378.86
2023-03-20T10:32:19.942Z,98382.64
2023-03-20T10:35:16.442Z,98381.78
2023-03-20T10:41:31.872Z,98381.78
2023-03-20T10:44:48.849Z,98380.87
2023-03-20T10:47:20.509Z,98374.81
2023-03-20T10:53:16.820Z,98376.12
2023-03-20T10:56:40.319Z,98372.25
2023-03-20T10:59:45.086Z,98375.50
2023-03-20T11:05:32.675Z,98374.23
2023-03-20T11:08:09.284Z,98375.09
2023-03-20T11:16:37.577Z,98366.20
2023-03-20T11:19:12.363Z,98369.53
2023-03-20T11:21:49.050Z,98372.34
2023-03-20T11:24:36.686Z,98371.36
2023-03-20T11:27:12.814Z,98369.88
2023-03-20T11:29:45.904Z,98373.06
2023-03-20T11:32:30.342Z,98377.31
2023-03-20T11:35:20.774Z,98378.84
2023-03-20T11:38:08.299Z,98372.52
2023-03-20T11:40:39.295Z,98367.01
2023-03-20T11:43:24.099Z,98371.66
2023-03-20T11:46:01.556Z,98372.65
2023-03-20T11:48:42.994Z,98385.13
2023-03-20T11:51:19.289Z,98382.86
2023-03-20T11:54:08.275Z,98380.34
2023-03-20T11:56:38.915Z,98379.43
2023-03-20T12:02:36.535Z,98373.61
2023-03-20T12:05:21.402Z,98379.61
2023-03-20T12:08:10.861Z,98386.23
2023-03-20T12:10:41.464Z,98386.39
2023-03-20T12:13:31.657Z,98378.92
2023-03-20T12:16:06.571Z,98380.94
2023-03-20T12:18:42.518Z,98389.25
2023-03-20T12:21:18.052Z,98390.77
2023-03-20T12:24:06.871Z,98387.90
2023-03-20T12:26:54.145Z,98388.55
2023-03-20T12:29:32.392Z,98388.13
2023-03-20T12:32:29.274Z,98394.14
2023-03-20T12:35:11.064Z,98397.02
2023-03-20T12:37:40.922Z,98392.28
2023-03-20T12:40:13.741Z,98395.15
2023-03-20T12:42:55.932Z,98393.86
2023-03-20T12:45:44.712Z,98393.94
2023-03-20T12:51:31.406Z,98388.38
2023-03-20T12:54:15.878Z,98391.18
2023-03-20T12:57:25.313Z,98386.09
2023-03-20T13:00:00.715Z,98385.12
2023-03-20T13:02:54.088Z,98388.20
2023-03-20T13:05:29.410Z,98382.47
2023-03-20T13:11:45.086Z,98383.90
2023-03-20T13:14:59.992Z,98377.73
2023-03-20T13:17:41.252Z,98378.55
2023-03-20T13:29:43.409Z,98380.05
2023-03-20T13:32:45.791Z,98376.29
2023-03-20T13:35:30.985Z,98371.41
2023-03-20T13:38:48.905Z,98369.90
2023-03-20T13:40:37.990Z,98367.24
2023-03-20T13:43:28.694Z,98372.44
2023-03-20T13:46:08.220Z,98378.14
2023-03-20T13:48:41.951Z,98375.16
2023-03-20T13:51:18.386Z,98374.12
2023-03-20T13:53:53.638Z,98372.51
2023-03-20T13:56:39.476Z,98373.17
2023-03-20T13:59:33.453Z,98377.87
2023-03-20T14:02:42.056Z,98385.28
2023-03-20T14:05:47.316Z,98386.64
2023-03-20T14:08:55.822Z,98389.66
2023-03-20T14:11:53.941Z,98395.92
2023-03-20T14:14:54.021Z,98397.36
2023-03-20T14:17:45.300Z,98390.33
2023-03-20T14:23:53.656Z,98400.75
2023-03-20T14:32:57.181Z,98395.21
2023-03-20T14:36:02.673Z,98369.51
2023-03-20T14:38:54.280Z,98389.70
2023-03-20T14:41:41.053Z,98389.76
2023-03-20T14:44:59.435Z,98378.58
2023-03-20T14:48:23.885Z,98382.38
2023-03-20T14:50:56.782Z,98382.38
2023-03-20T14:54:06.045Z,98382.88
2023-03-20T14:56:36.477Z,98376.92
2023-03-20T14:59:07.240Z,98381.30
2023-03-20T15:01:48.236Z,98378.58
2023-03-20T15:04:24.330Z,98376.61
2023-03-20T15:06:57.304Z,98368.15
2023-03-20T15:09:27.226Z,98372.14
2023-03-20T15:14:59.993Z,98361.78
2023-03-20T15:17:53.944Z,98353.61
2023-03-20T15:20:40.494Z,98350.34
2023-03-20T15:23:14.356Z,98358.45
2023-03-20T15:25:46.360Z,98347.48
2023-03-20T15:28:24.371Z,98347.48
2023-03-20T15:30:55.636Z,98346.60
2023-03-20T15:33:30.548Z,98341.98
2023-03-20T15:36:10.157Z,98349.61
2023-03-20T15:38:44.746Z,98343.94
2023-03-20T15:41:20.266Z,98312.42
2023-03-20T15:43:50.864Z,98344.42
2023-03-20T15:46:24.513Z,98345.46
2023-03-20T15:48:56.636Z,98337.83
2023-03-20T15:51:27.253Z,98338.59
2023-03-20T15:54:05.369Z,98327.41
2023-03-20T15:56:55.018Z,98325.75
2023-03-20T15:59:53.827Z,98322.49
2023-03-20T16:02:24.163Z,98322.72
2023-03-20T16:05:00.158Z,98324.08
2023-03-20T16:07:32.429Z,98306.91
2023-03-20T16:10:02.605Z,98303.36
2023-03-20T16:12:38.637Z,98301.69
2023-03-20T16:15:19.289Z,98290.56
2023-03-20T16:17:52.697Z,98292.47
2023-03-20T16:20:23.232Z,98293.83
2023-03-20T16:22:54.331Z,98293.29
2023-03-20T16:25:24.283Z,98300.38
2023-03-20T16:27:54.441Z,98300.98
2023-03-20T16:30:26.906Z,98296.36
2023-03-20T16:33:16.535Z,98283.88
2023-03-20T16:36:00.684Z,98296.96
2023-03-20T16:39:08.508Z,98288.25
2023-03-20T16:41:55.551Z,98286.95
2023-03-20T16:44:28.166Z,98280.45
2023-03-20T16:47:02.944Z,98274.47
2023-03-20T16:49:45.196Z,98277.48
2023-03-20T16:52:15.555Z,98273.17
2023-03-20T16:54:45.576Z,98276.23
2023-03-20T16:57:35.680Z,98272.24
2023-03-20T17:00:11.838Z,98272.24
2023-03-20T17:03:11.877Z,98266.56
2023-03-20T17:06:12.840Z,98254.26
2023-03-20T17:08:57.884Z,98237.57
2023-03-20T17:11:33.684Z,98252.41
2023-03-20T17:14:05.038Z,98242.33
2023-03-20T17:16:35.133Z,98242.05
2023-03-20T17:19:10.231Z,98227.34
2023-03-20T17:21:41.985Z,98230.30
2023-03-20T17:24:20.620Z,98223.25
2023-03-20T17:26:57.658Z,98209.09
2023-03-20T17:29:27.622Z,98209.69
2023-03-20T17:31:57.534Z,98204.46
2023-03-20T17:34:27.741Z,98200.91
2023-03-20T17:36:59.225Z,98191.92
2023-03-20T17:39:29.203Z,98188.38
2023-03-20T17:42:13.449Z,98191.38
2023-03-20T17:44:43.486Z,98178.02
2023-03-20T17:47:18.083Z,98168.98
2023-03-20T17:49:48.493Z,98172.79
2023-03-20T17:52:20.553Z,98167.88
2023-03-20T17:54:50.583Z,98158.88
2023-03-20T17:57:34.442Z,98161.27
2023-03-20T18:00:08.227Z,98161.61
2023-03-20T18:02:38.189Z,98155.63
2023-03-20T18:05:08.724Z,98143.36
2023-03-20T18:07:38.737Z,98142.53
2023-03-20T18:10:09.127Z,98145.77
2023-03-20T18:12:39.837Z,98139.27
2023-03-20T18:15:14.061Z,98130.78
2023-03-20T18:17:44.812Z,98118.52
2023-03-20T18:20:20.655Z,98129.73
2023-03-20T18:22:50.889Z,98119.37
2023-03-20T18:25:23.044Z,98114.44
2023-03-20T18:27:53.007Z,98101.86
2023-03-20T18:30:35.060Z,98101.33
2023-03-20T18:33:10.149Z,98098.86
2023-03-20T18:35:40.209Z,98097.49
2023-03-20T18:38:12.108Z,98086.59
2023-03-20T18:40:43.384Z,98082.51
2023-03-20T18:43:19.684Z,98078.11
2023-03-20T18:45:50.078Z,98074.56
2023-03-20T18:48:32.560Z,98060.95
2023-03-20T18:51:20.576Z,98057.88
2023-03-20T18:53:51.692Z,98066.93
2023-03-20T18:56:23.692Z,98061.77
2023-03-20T18:58:54.928Z,98068.30
2023-03-20T19:01:26.500Z,98056.58
2023-03-20T19:03:56.675Z,98054.36
2023-03-20T19:06:26.768Z,98049.77
2023-03-20T19:08:56.757Z,98037.20
2023-03-20T19:11:27.200Z,98028.74
2023-03-20T19:13:57.285Z,98021.93
2023-03-20T19:16:51.828Z,98022.47
2023-03-20T19:19:24.089Z,98016.48
2023-03-20T19:22:28.493Z,98013.94
2023-03-20T19:24:45.773Z,98007.39
2023-03-20T19:30:44.482Z,98001.94
2023-03-20T19:36:56.422Z,98004.94
2023-03-20T19:40:08.186Z,97998.13
2023-03-20T19:43:01.610Z,97997.31
2023-03-20T19:46:07.763Z,97995.13
2023-03-20T19:48:57.781Z,97986.14
2023-03-20T19:51:47.687Z,97985.28
2023-03-20T19:55:02.298Z,97980.64
2023-03-20T20:03:56.078Z,97950.46
2023-03-20T20:06:47.702Z,97945.45
2023-03-20T20:10:06.641Z,97936.75
2023-03-20T20:13:19.082Z,97936.25
2023-03-20T20:15:54.740Z,97921.86
2023-03-20T20:18:40.883Z,97911.27
2023-03-20T20:23:43.334Z,97889.55
2023-03-20T20:26:13.442Z,97908.38
2023-03-20T20:28:43.327Z,97901.08
2023-03-20T20:31:14.049Z,97906.33
2023-03-20T20:34:10.004Z,97904.70
2023-03-20T20:39:57.546Z,97886.21
2023-03-20T20:42:53.506Z,97887.08
2023-03-20T20:45:45.433Z,97882.75
2023-03-20T20:51:04.622Z,97878.67
2023-03-20T20:53:34.457Z,97869.41
2023-03-20T20:56:04.463Z,97849.75
2023-03-20T20:58:34.869Z,97849.52
2023-03-20T21:01:22.418Z,97854.97
2023-03-20T21:04:29.050Z,97850.06
2023-03-20T21:07:10.347Z,97854.19
2023-03-20T21:10:04.451Z,97847.66
2023-03-20T21:13:04.507Z,97843.84
2023-03-20T21:15:50.132Z,97837.58
2023-03-20T21:18:30.998Z,97838.94
2023-03-20T21:21:10.629Z,97842.16
2023-03-20T21:23:41.002Z,97848.73
2023-03-20T21:26:11.233Z,97845.19
2023-03-20T21:28:41.390Z,97853.37
2023-03-20T21:31:25.546Z,97855.78
2023-03-20T21:34:17.905Z,97853.60
2023-03-20T21:40:29.289Z,97855.50
2023-03-20T21:43:13.746Z,97847.88
2023-03-20T21:46:45.239Z,97842.42
2023-03-20T21:53:12.489Z,97843.25
2023-03-20T22:01:58.346Z,97866.31
2023-03-20T22:08:09.567Z,97862.47
2023-03-20T22:20:03.602Z,97853.94
2023-03-20T22:29:07.194Z,97852.30
2023-03-20T22:38:12.680Z,97826.06
2023-03-20T22:41:00.760Z,97827.16
2023-03-20T22:46:39.985Z,97826.11
2023-03-20T22:48:59.946Z,97822.34
2023-03-20T22:51:40.938Z,97820.42
2023-03-20T22:54:05.592Z,97819.06
2023-03-20T22:56:35.621Z,97807.94
2023-03-20T22:59:05.700Z,97812.02
2023-03-20T23:01:35.652Z,97816.95
2023-03-20T23:04:47.394Z,97815.64
2023-03-20T23:07:16.150Z,97814.01
2023-03-20T23:12:33.879Z,97819.00
2023-03-20T23:15:03.771Z,97825.31
2023-03-20T23:17:33.685Z,97834.61
2023-03-20T23:20:24.110Z,97843.37
2023-03-20T23:22:57.830Z,97837.37
2023-03-20T23:28:51.560Z,97850.82
2023-03-20T23:31:26.087Z,97848.86
2023-03-20T23:37:16.721Z,97841.55
2023-03-20T23:39:46.641Z,97838.56
2023-03-20T23:42:29.800Z,97828.20
2023-03-20T23:44:56.429Z,97815.66
2023-03-20T23:47:43.876Z,97802.85
2023-03-20T23:50:02.967Z,97804.45
2023-03-20T23:53:19.149Z,97796.27
2023-03-20T23:55:44.721Z,97779.80
